This is the latest recevied weather packets stored in our database for station/object DB0BIN. If no packets are shown the sender has not sent any weather packets the latest 1 day(s).
| Time | Temp. | Humidity | Pressure | Rain* | Wind** | Luminosity | Snow |
|---|---|---|---|---|---|---|---|
| 1778002805 | 12.22° C | - | 1006.5 hPa | 8.38 mm | 0 m/s | - | - |
| 1778002505 | 12.22° C | - | 1006.5 hPa | 8.13 mm | 0 m/s | - | - |
| 1778002205 | 12.22° C | - | 1006.5 hPa | 7.87 mm | 0 m/s | - | - |
| 1778001905 | 12.78° C | - | 1006.7 hPa | 7.11 mm | 0 m/s | - | - |
| 1778001605 | 12.78° C | - | 1006.6 hPa | 7.11 mm | 0 m/s | - | - |
| 1778001305 | 12.78° C | - | 1006.5 hPa | 7.11 mm | 0 m/s | - | - |
| 1778001005 | 12.78° C | - | 1006.5 hPa | 7.11 mm | 0 m/s | - | - |
| 1778000705 | 12.78° C | - | 1006.5 hPa | 6.6 mm | 0 m/s | - | - |
| 1778000405 | 12.78° C | - | 1006.5 hPa | 6.6 mm | 0 m/s | - | - |
| 1778000105 | 12.78° C | - | 1006.5 hPa | 6.6 mm | 0 m/s | - | - |
| 1777999805 | 12.78° C | - | 1006.2 hPa | 6.6 mm | 0 m/s | - | - |
| 1777999505 | 12.78° C | - | 1006.2 hPa | 6.6 mm | 0 m/s | - | - |
| 1777999205 | 12.78° C | - | 1006.2 hPa | 6.6 mm | 0 m/s | - | - |
| 1777998905 | 12.78° C | - | 1006.5 hPa | 6.6 mm | 0 m/s | - | - |
| 1777998605 | 13.33° C | - | 1006.6 hPa | 6.35 mm | 0 m/s | - | - |
| 1777998305 | 13.89° C | - | 1006.7 hPa | 6.1 mm | 0 m/s | - | - |
| 1777998005 | 14.44° C | - | 1006.7 hPa | 6.1 mm | 0 m/s | - | - |
| 1777997705 | 15° C | - | 1006.2 hPa | 4.57 mm | 0 m/s | - | - |
| 1777997405 | 15.56° C | - | 1006.2 hPa | 2.29 mm | 0 m/s | - | - |
| 1777997105 | 15.56° C | - | 1005.7 hPa | 2.29 mm | 0 m/s | - | - |
| 1777996805 | 16.11° C | - | 1005.7 hPa | 2.29 mm | 0 m/s | - | - |
| 1777996505 | 16.11° C | - | 1005.7 hPa | 2.29 mm | 0 m/s | - | - |
| 1777996205 | 16.67° C | - | 1005.7 hPa | 2.29 mm | 0 m/s | - | - |
| 1777995905 | 16.67° C | - | 1005.9 hPa | 2.29 mm | 0 m/s | - | - |
| 1777995605 | 16.67° C | - | 1005.9 hPa | 2.29 mm | 0 m/s | - | - |
* Rain latest 24 hours (hover to see other rain measurements)
** Current wind speed in m/s (hover to see current wind gust speed)